createdAt,value
2022-09-14T00:01:55.808Z,20.02
2022-09-14T00:04:25.541Z,20.01
2022-09-14T00:06:53.940Z,20.04
2022-09-14T00:09:24.239Z,20.01
2022-09-14T00:11:52.373Z,19.96
2022-09-14T00:14:21.519Z,19.98
2022-09-14T00:16:51.037Z,19.98
2022-09-14T00:19:22.025Z,19.90
2022-09-14T00:21:54.423Z,19.95
2022-09-14T00:24:23.383Z,19.94
2022-09-14T00:26:51.870Z,19.93
2022-09-14T00:29:20.948Z,19.88
2022-09-14T00:31:49.136Z,19.78
2022-09-14T00:34:19.517Z,19.90
2022-09-14T00:36:51.321Z,19.91
2022-09-14T00:39:25.286Z,19.98
2022-09-14T00:41:55.747Z,19.93
2022-09-14T00:45:01.284Z,19.96
2022-09-14T00:47:31.841Z,19.87
2022-09-14T00:50:05.734Z,19.89
2022-09-14T00:52:38.580Z,19.91
2022-09-14T00:55:11.926Z,19.93
2022-09-14T00:57:44.283Z,19.92
2022-09-14T01:00:17.183Z,19.95
2022-09-14T01:02:46.119Z,19.92
2022-09-14T01:05:15.869Z,19.97
2022-09-14T01:08:09.423Z,19.92
2022-09-14T01:10:56.971Z,19.92
2022-09-14T01:13:32.933Z,19.91
2022-09-14T01:16:13.725Z,19.92
2022-09-14T01:18:47.945Z,19.95
2022-09-14T01:21:20.958Z,19.99
2022-09-14T01:23:57.914Z,19.98
2022-09-14T01:27:11.092Z,19.91
2022-09-14T01:29:45.953Z,19.87
2022-09-14T01:32:20.914Z,19.92
2022-09-14T01:34:57.672Z,19.90
2022-09-14T01:37:31.866Z,19.95
2022-09-14T01:40:08.746Z,19.89
2022-09-14T01:42:43.759Z,19.90
2022-09-14T01:45:19.734Z,19.88
2022-09-14T01:47:54.593Z,19.82
2022-09-14T01:50:31.403Z,19.79
2022-09-14T01:53:06.357Z,19.77
2022-09-14T01:55:41.150Z,19.80
2022-09-14T01:58:16.997Z,19.85
2022-09-14T02:00:54.037Z,19.85
2022-09-14T02:03:33.203Z,19.88
2022-09-14T02:06:10.165Z,19.87
2022-09-14T02:08:39.500Z,19.83
2022-09-14T02:11:09.978Z,19.82
2022-09-14T02:13:38.401Z,19.82
2022-09-14T02:16:08.430Z,19.84
2022-09-14T02:18:39.921Z,19.81
2022-09-14T02:21:15.061Z,19.81
2022-09-14T02:23:45.426Z,19.86
2022-09-14T02:26:16.299Z,19.85
2022-09-14T02:28:47.436Z,19.94
2022-09-14T02:31:25.609Z,19.93
2022-09-14T02:34:05.491Z,19.98
2022-09-14T02:36:51.089Z,19.96
2022-09-14T02:39:28.650Z,19.91
2022-09-14T02:42:11.952Z,19.89
2022-09-14T02:44:48.107Z,19.87
2022-09-14T02:47:24.598Z,19.81
2022-09-14T02:50:01.111Z,19.79
2022-09-14T02:52:34.554Z,19.67
2022-09-14T02:55:09.709Z,19.61
2022-09-14T02:58:06.470Z,19.64
2022-09-14T03:00:39.264Z,19.68
2022-09-14T03:03:11.226Z,19.66
2022-09-14T03:05:42.994Z,19.67
2022-09-14T03:08:14.096Z,19.60
2022-09-14T03:10:46.477Z,19.60
2022-09-14T03:13:17.930Z,19.20
2022-09-14T03:15:46.896Z,19.41
2022-09-14T03:18:26.571Z,19.43
2022-09-14T03:20:54.886Z,19.53
2022-09-14T03:23:24.744Z,19.53
2022-09-14T03:25:56.147Z,19.56
2022-09-14T03:28:27.057Z,19.60
2022-09-14T03:30:56.981Z,19.60
2022-09-14T03:33:29.435Z,19.61
2022-09-14T03:35:59.275Z,19.68
2022-09-14T03:38:30.254Z,19.71
2022-09-14T03:40:59.830Z,19.72
2022-09-14T03:43:30.665Z,19.73
2022-09-14T03:45:59.832Z,19.68
2022-09-14T03:48:33.976Z,19.60
2022-09-14T03:51:04.973Z,19.55
2022-09-14T03:53:34.041Z,19.59
2022-09-14T03:56:02.240Z,19.54
2022-09-14T03:58:33.261Z,19.59
2022-09-14T04:01:06.450Z,19.62
2022-09-14T04:03:37.850Z,19.63
2022-09-14T04:06:07.858Z,19.65
2022-09-14T04:08:37.778Z,19.66
2022-09-14T04:11:10.990Z,19.68
2022-09-14T04:13:39.956Z,19.65
2022-09-14T04:16:10.871Z,19.68
2022-09-14T04:18:42.501Z,19.68
2022-09-14T04:21:16.103Z,19.71
2022-09-14T04:24:13.427Z,19.73
2022-09-14T04:26:34.516Z,19.75
2022-09-14T04:29:05.242Z,19.79
2022-09-14T04:31:35.135Z,19.81
2022-09-14T04:34:05.417Z,19.80
2022-09-14T04:36:41.670Z,19.65
2022-09-14T04:39:13.990Z,19.66
2022-09-14T04:41:42.589Z,19.71
2022-09-14T04:44:10.639Z,19.68
2022-09-14T04:46:46.197Z,19.62
2022-09-14T04:49:15.301Z,19.50
2022-09-14T04:51:44.838Z,19.53
2022-09-14T04:54:15.783Z,19.51
2022-09-14T04:56:44.390Z,19.56
2022-09-14T04:59:13.378Z,19.60
2022-09-14T05:01:43.398Z,19.61
2022-09-14T05:04:13.515Z,19.48
2022-09-14T05:06:43.097Z,19.64
2022-09-14T05:09:15.853Z,19.66
2022-09-14T05:11:44.341Z,19.63
2022-09-14T05:14:14.564Z,19.63
2022-09-14T05:16:43.681Z,19.67
2022-09-14T05:19:17.773Z,19.72
2022-09-14T05:21:46.810Z,19.74
2022-09-14T05:24:18.253Z,19.75
2022-09-14T05:26:47.272Z,19.68
2022-09-14T05:29:17.286Z,19.69
2022-09-14T05:31:46.305Z,19.74
2022-09-14T05:34:15.141Z,19.73
2022-09-14T05:36:43.723Z,19.76
2022-09-14T05:39:11.938Z,19.75
2022-09-14T05:41:41.628Z,19.74
2022-09-14T05:44:10.682Z,19.77
2022-09-14T05:46:39.777Z,19.77
2022-09-14T05:49:12.201Z,19.77
2022-09-14T05:51:40.525Z,19.76
2022-09-14T05:54:12.628Z,19.80
2022-09-14T05:56:43.700Z,19.77
2022-09-14T05:59:13.477Z,19.75
2022-09-14T06:01:43.656Z,19.78
2022-09-14T06:04:14.302Z,19.75
2022-09-14T06:06:55.961Z,19.73
2022-09-14T06:09:33.410Z,19.73
2022-09-14T06:12:04.982Z,19.72
2022-09-14T06:14:33.884Z,19.76
2022-09-14T06:17:03.597Z,19.76
2022-09-14T06:19:34.870Z,19.69
2022-09-14T06:22:06.045Z,19.73
2022-09-14T06:24:39.099Z,19.77
2022-09-14T06:27:11.202Z,19.82
2022-09-14T06:29:41.557Z,19.84
2022-09-14T06:32:11.900Z,19.87
2022-09-14T06:34:40.331Z,19.89
2022-09-14T06:37:08.461Z,19.93
2022-09-14T06:39:39.053Z,19.98
2022-09-14T06:42:13.294Z,19.96
2022-09-14T06:44:44.487Z,19.87
2022-09-14T06:47:14.060Z,19.90
2022-09-14T06:49:45.785Z,19.92
2022-09-14T06:52:17.514Z,19.93
2022-09-14T06:54:47.456Z,19.87
2022-09-14T06:57:18.368Z,19.85
2022-09-14T06:59:48.170Z,19.87
2022-09-14T07:02:17.038Z,19.86
2022-09-14T07:04:46.926Z,19.84
2022-09-14T07:07:19.794Z,19.88
2022-09-14T07:09:48.354Z,19.87
2022-09-14T07:12:18.851Z,19.88
2022-09-14T07:14:48.459Z,19.90
2022-09-14T07:17:16.871Z,19.99
2022-09-14T07:19:45.500Z,19.88
2022-09-14T07:22:14.832Z,19.98
2022-09-14T07:24:46.011Z,19.96
2022-09-14T07:27:15.284Z,19.92
2022-09-14T07:29:48.060Z,19.93
2022-09-14T07:32:18.515Z,19.90
2022-09-14T07:34:49.164Z,19.94
2022-09-14T07:37:19.673Z,19.99
2022-09-14T07:39:51.537Z,20.02
2022-09-14T07:42:21.111Z,20.06
2022-09-14T07:44:52.102Z,20.09
2022-09-14T07:47:21.659Z,20.15
2022-09-14T07:49:51.682Z,20.18
2022-09-14T07:52:22.665Z,20.20
2022-09-14T07:54:53.225Z,20.20
2022-09-14T07:57:39.465Z,20.17
2022-09-14T08:00:16.094Z,20.20
2022-09-14T08:02:46.609Z,20.20
2022-09-14T08:05:18.841Z,20.14
2022-09-14T08:07:50.038Z,20.24
2022-09-14T08:10:19.169Z,20.26
2022-09-14T08:12:53.559Z,20.32
2022-09-14T08:15:28.596Z,20.31
2022-09-14T08:17:57.269Z,20.41
2022-09-14T08:20:25.947Z,20.44
2022-09-14T08:22:54.527Z,20.48
2022-09-14T08:25:23.552Z,20.55
2022-09-14T08:27:53.586Z,20.53
2022-09-14T08:30:24.689Z,20.54
2022-09-14T08:32:53.322Z,20.50
2022-09-14T08:35:40.771Z,20.58
2022-09-14T08:38:11.576Z,20.67
2022-09-14T08:40:46.858Z,20.75
2022-09-14T08:43:16.226Z,20.80
2022-09-14T08:45:46.908Z,20.83
2022-09-14T08:48:23.548Z,20.86
2022-09-14T08:50:53.963Z,20.84
2022-09-14T08:53:23.248Z,20.82
2022-09-14T08:55:57.988Z,20.86
2022-09-14T08:58:46.272Z,20.93
2022-09-14T09:01:24.822Z,20.98
2022-09-14T09:04:05.066Z,21.00
2022-09-14T09:06:44.779Z,21.06
2022-09-14T09:09:22.923Z,21.03
2022-09-14T09:11:54.248Z,20.95
2022-09-14T09:14:26.925Z,20.96
2022-09-14T09:16:59.087Z,20.95
2022-09-14T09:19:32.661Z,21.03
2022-09-14T09:22:03.449Z,21.03
2022-09-14T09:24:37.935Z,21.05
2022-09-14T09:27:11.643Z,21.07
2022-09-14T09:29:40.288Z,21.07
2022-09-14T09:32:16.377Z,21.04
2022-09-14T09:35:10.191Z,21.07
2022-09-14T09:37:53.450Z,21.09
2022-09-14T09:40:35.411Z,21.07
2022-09-14T09:43:11.156Z,21.03
2022-09-14T09:45:52.222Z,21.03
2022-09-14T09:48:26.050Z,21.02
2022-09-14T09:51:05.344Z,21.02
2022-09-14T09:53:38.402Z,21.01
2022-09-14T09:56:09.489Z,21.08
2022-09-14T09:58:41.891Z,21.07
2022-09-14T10:01:20.818Z,21.14
2022-09-14T10:04:04.480Z,21.19
2022-09-14T10:06:44.413Z,21.16
2022-09-14T10:09:18.533Z,21.13
2022-09-14T10:11:50.704Z,21.13
2022-09-14T10:14:28.211Z,21.23
2022-09-14T10:17:07.548Z,21.25
2022-09-14T10:19:38.690Z,21.23
2022-09-14T10:22:25.743Z,21.32
2022-09-14T10:25:01.414Z,21.26
2022-09-14T10:27:38.231Z,21.30
2022-09-14T10:30:17.814Z,21.08
2022-09-14T10:32:51.220Z,21.24
2022-09-14T10:35:25.493Z,21.25
2022-09-14T10:38:09.637Z,21.28
2022-09-14T10:40:41.657Z,21.31
2022-09-14T10:43:16.634Z,21.30
2022-09-14T10:45:53.025Z,21.27
2022-09-14T10:48:51.155Z,21.34
2022-09-14T10:51:39.760Z,21.39
2022-09-14T10:54:23.357Z,21.45
2022-09-14T10:57:06.644Z,21.55
2022-09-14T10:59:46.287Z,21.59
2022-09-14T11:02:50.906Z,21.63
2022-09-14T11:05:27.291Z,21.62
2022-09-14T11:08:13.470Z,21.64
2022-09-14T11:11:01.610Z,21.64
2022-09-14T11:13:59.589Z,21.64
2022-09-14T11:16:53.040Z,21.70
2022-09-14T11:19:33.270Z,21.70
2022-09-14T11:22:09.091Z,21.72
2022-09-14T11:24:47.256Z,21.78
2022-09-14T11:27:25.499Z,21.81
2022-09-14T11:29:59.211Z,21.90
2022-09-14T11:32:33.114Z,22.05
2022-09-14T11:35:13.758Z,22.14
2022-09-14T11:37:48.705Z,22.09
2022-09-14T11:40:24.254Z,22.07
2022-09-14T11:43:00.266Z,22.03
2022-09-14T11:45:36.567Z,22.13
2022-09-14T11:48:41.454Z,22.15
2022-09-14T11:51:08.952Z,22.14
2022-09-14T11:53:38.691Z,22.09
2022-09-14T11:56:27.201Z,22.03
2022-09-14T11:59:02.333Z,22.08
2022-09-14T12:01:35.989Z,22.03
2022-09-14T12:04:14.324Z,22.08
2022-09-14T12:06:54.293Z,22.09
2022-09-14T12:09:55.909Z,22.09
2022-09-14T12:12:45.620Z,22.11
2022-09-14T12:15:19.135Z,22.01
2022-09-14T12:17:50.279Z,22.23
2022-09-14T12:20:42.982Z,22.17
2022-09-14T12:23:28.031Z,22.13
2022-09-14T12:26:02.056Z,22.05
2022-09-14T12:28:53.869Z,22.10
2022-09-14T12:31:41.564Z,22.05
2022-09-14T12:34:21.625Z,22.15
2022-09-14T12:37:31.863Z,22.24
2022-09-14T12:40:29.884Z,22.33
2022-09-14T12:43:20.177Z,22.31
2022-09-14T12:46:03.600Z,22.54
2022-09-14T12:49:18.020Z,22.68
2022-09-14T12:51:53.049Z,22.49
2022-09-14T12:54:32.476Z,22.41
2022-09-14T12:57:18.484Z,22.53
2022-09-14T12:59:56.253Z,22.49
2022-09-14T13:02:55.434Z,22.45
2022-09-14T13:05:29.779Z,22.30
2022-09-14T13:08:00.691Z,22.21
2022-09-14T13:10:33.163Z,22.14
2022-09-14T13:13:04.208Z,21.88
2022-09-14T13:15:35.360Z,21.84
2022-09-14T13:18:07.440Z,21.92
2022-09-14T13:20:38.024Z,21.78
2022-09-14T13:23:22.643Z,21.88
2022-09-14T13:25:53.112Z,21.74
2022-09-14T13:28:24.912Z,21.76
2022-09-14T13:31:01.385Z,21.79
2022-09-14T13:33:32.362Z,21.78
2022-09-14T13:36:03.857Z,21.82
2022-09-14T13:38:35.284Z,21.75
2022-09-14T13:41:10.569Z,21.70
2022-09-14T13:43:41.018Z,21.91
2022-09-14T13:46:10.959Z,22.16
2022-09-14T13:48:43.008Z,22.55
2022-09-14T13:51:14.079Z,22.79
2022-09-14T13:53:45.948Z,22.94
2022-09-14T13:56:23.961Z,23.05
2022-09-14T13:59:12.906Z,23.19
2022-09-14T14:01:43.493Z,23.41
2022-09-14T14:04:27.735Z,23.63
2022-09-14T14:07:08.643Z,23.69
2022-09-14T14:09:46.437Z,23.89
2022-09-14T14:12:24.703Z,23.89
2022-09-14T14:14:58.091Z,23.77
2022-09-14T14:17:34.633Z,23.50
2022-09-14T14:20:32.835Z,23.39
2022-09-14T14:23:15.861Z,23.23
2022-09-14T14:25:47.903Z,23.27
2022-09-14T14:28:19.992Z,23.37
2022-09-14T14:30:48.144Z,23.29
2022-09-14T14:33:19.633Z,23.23
2022-09-14T14:35:51.797Z,23.14
2022-09-14T14:38:20.509Z,23.14
2022-09-14T14:40:50.152Z,23.27
2022-09-14T14:43:24.999Z,23.21
2022-09-14T14:45:56.856Z,23.29
2022-09-14T14:48:28.458Z,23.40
2022-09-14T14:51:02.529Z,23.37
2022-09-14T14:53:30.911Z,23.38
2022-09-14T14:56:00.644Z,23.42
2022-09-14T14:58:36.259Z,23.43
2022-09-14T15:01:05.472Z,23.43
2022-09-14T15:03:37.379Z,23.40
2022-09-14T15:06:16.666Z,23.48
2022-09-14T15:08:50.573Z,23.47
2022-09-14T15:11:21.736Z,23.43
2022-09-14T15:13:50.611Z,23.42
2022-09-14T15:16:20.407Z,23.41
2022-09-14T15:18:49.019Z,23.41
2022-09-14T15:21:19.138Z,23.37
2022-09-14T15:23:49.959Z,23.38
2022-09-14T15:26:18.179Z,23.31
2022-09-14T15:28:48.823Z,23.30
2022-09-14T15:31:17.362Z,23.24
2022-09-14T15:33:45.666Z,23.24
2022-09-14T15:36:14.287Z,23.25
2022-09-14T15:38:45.913Z,23.29
2022-09-14T15:41:15.739Z,23.25
2022-09-14T15:43:45.665Z,23.19
2022-09-14T15:46:14.430Z,23.14
2022-09-14T15:48:44.862Z,23.08
2022-09-14T15:51:18.174Z,23.10
2022-09-14T15:53:50.846Z,23.03
2022-09-14T15:56:20.807Z,22.96
2022-09-14T15:58:54.913Z,22.99
2022-09-14T16:01:25.468Z,23.00
2022-09-14T16:03:58.627Z,22.90
2022-09-14T16:06:29.877Z,22.85
2022-09-14T16:09:02.043Z,22.82
2022-09-14T16:11:32.063Z,22.80
2022-09-14T16:14:03.269Z,22.73
2022-09-14T16:16:34.708Z,22.74
2022-09-14T16:19:10.353Z,22.66
2022-09-14T16:21:40.276Z,22.65
2022-09-14T16:24:15.960Z,22.68
2022-09-14T16:26:46.138Z,22.69
2022-09-14T16:29:19.570Z,22.68
2022-09-14T16:31:50.030Z,22.69
2022-09-14T16:34:21.340Z,22.67
2022-09-14T16:36:50.761Z,22.62
2022-09-14T16:39:25.504Z,22.63
2022-09-14T16:41:56.012Z,22.56
2022-09-14T16:44:26.836Z,22.53
2022-09-14T16:46:59.675Z,22.49
2022-09-14T16:49:28.946Z,22.52
2022-09-14T16:52:01.053Z,22.48
2022-09-14T16:54:31.942Z,22.54
2022-09-14T16:57:01.564Z,22.53
2022-09-14T16:59:30.636Z,22.56
2022-09-14T17:01:58.997Z,22.48
2022-09-14T17:04:30.241Z,22.40
2022-09-14T17:07:00.788Z,22.41
2022-09-14T17:09:32.932Z,22.40
2022-09-14T17:12:01.396Z,22.34
2022-09-14T17:14:32.231Z,22.30
2022-09-14T17:17:02.088Z,22.28
2022-09-14T17:19:31.361Z,22.25
2022-09-14T17:22:00.247Z,22.14
2022-09-14T17:24:31.378Z,22.19
2022-09-14T17:27:00.764Z,22.20
2022-09-14T17:29:32.550Z,22.12
2022-09-14T17:32:03.319Z,22.14
2022-09-14T17:34:34.084Z,22.13
2022-09-14T17:37:02.779Z,22.08
2022-09-14T17:39:33.737Z,22.07
2022-09-14T17:42:02.134Z,22.04
2022-09-14T17:44:32.407Z,22.08
2022-09-14T17:47:02.016Z,22.07
2022-09-14T17:49:34.436Z,22.05
2022-09-14T17:52:04.666Z,22.04
2022-09-14T17:54:37.997Z,21.91
2022-09-14T17:57:10.393Z,21.94
2022-09-14T17:59:40.725Z,21.92
2022-09-14T18:02:12.112Z,21.90
2022-09-14T18:04:46.567Z,21.87
2022-09-14T18:07:18.558Z,21.82
2022-09-14T18:09:49.942Z,21.76
2022-09-14T18:12:21.095Z,21.70
2022-09-14T18:14:50.323Z,21.58
2022-09-14T18:17:21.189Z,21.49
2022-09-14T18:19:55.075Z,21.54
2022-09-14T18:22:24.425Z,21.54
2022-09-14T18:24:55.660Z,21.48
2022-09-14T18:27:26.226Z,21.47
2022-09-14T18:29:55.076Z,21.39
2022-09-14T18:32:23.728Z,21.41
2022-09-14T18:34:53.269Z,21.38
2022-09-14T18:37:24.737Z,21.35
2022-09-14T18:39:58.260Z,21.30
2022-09-14T18:42:28.395Z,21.27
2022-09-14T18:44:59.075Z,21.12
2022-09-14T18:47:29.435Z,21.14
2022-09-14T18:49:59.290Z,21.15
2022-09-14T18:52:32.802Z,20.93
2022-09-14T18:55:03.380Z,20.83
2022-09-14T18:57:32.329Z,20.86
2022-09-14T19:00:01.728Z,20.74
2022-09-14T19:02:31.355Z,20.77
2022-09-14T19:05:00.922Z,20.79
2022-09-14T19:07:31.112Z,20.64
2022-09-14T19:10:00.222Z,20.69
2022-09-14T19:12:31.940Z,20.66
2022-09-14T19:15:01.550Z,20.71
2022-09-14T19:17:29.918Z,20.70
2022-09-14T19:19:59.251Z,20.73
2022-09-14T19:22:29.702Z,20.70
2022-09-14T19:24:58.585Z,20.58
2022-09-14T19:27:28.817Z,20.61
2022-09-14T19:30:00.285Z,20.54
2022-09-14T19:32:29.745Z,20.52
2022-09-14T19:34:58.365Z,20.43
2022-09-14T19:37:26.878Z,20.31
2022-09-14T19:39:56.890Z,20.22
2022-09-14T19:42:28.620Z,20.22
2022-09-14T19:44:58.669Z,20.13
2022-09-14T19:47:26.947Z,20.19
2022-09-14T19:49:55.370Z,20.00
2022-09-14T19:52:24.259Z,19.91
2022-09-14T19:54:54.035Z,20.01
2022-09-14T19:57:22.691Z,19.95
2022-09-14T19:59:51.125Z,20.00
2022-09-14T20:02:20.751Z,20.04
2022-09-14T20:04:49.203Z,19.88
2022-09-14T20:07:17.660Z,19.75
2022-09-14T20:09:45.864Z,19.74
2022-09-14T20:12:14.662Z,19.63
2022-09-14T20:14:43.110Z,19.64
2022-09-14T20:17:11.276Z,19.71
2022-09-14T20:19:42.724Z,19.74
2022-09-14T20:22:16.130Z,19.72
2022-09-14T20:24:45.586Z,19.49
2022-09-14T20:27:15.494Z,19.58
2022-09-14T20:29:43.688Z,19.59
2022-09-14T20:32:12.261Z,19.43
2022-09-14T20:34:42.504Z,19.38
2022-09-14T20:37:10.971Z,19.24
2022-09-14T20:39:39.770Z,19.17
2022-09-14T20:42:09.426Z,19.11
2022-09-14T20:44:37.907Z,19.30
2022-09-14T20:47:06.197Z,19.16
2022-09-14T20:49:34.837Z,19.19
2022-09-14T20:52:05.751Z,19.28
2022-09-14T20:54:33.861Z,19.34
2022-09-14T20:57:04.520Z,19.21
2022-09-14T20:59:35.430Z,19.33
2022-09-14T21:02:07.898Z,19.29
2022-09-14T21:04:37.531Z,19.40
2022-09-14T21:07:09.340Z,19.28
2022-09-14T21:09:42.657Z,19.23
2022-09-14T21:12:15.957Z,19.24
2022-09-14T21:14:48.936Z,19.24
2022-09-14T21:17:20.125Z,19.32
2022-09-14T21:19:49.499Z,19.30
2022-09-14T21:22:19.695Z,19.21
2022-09-14T21:24:47.973Z,19.25
2022-09-14T21:27:15.938Z,19.24
2022-09-14T21:29:45.540Z,19.23
2022-09-14T21:32:16.146Z,19.32
2022-09-14T21:34:46.085Z,19.27
2022-09-14T21:37:17.328Z,19.22
2022-09-14T21:39:50.260Z,19.30
2022-09-14T21:42:20.211Z,19.36
2022-09-14T21:44:49.462Z,19.32
2022-09-14T21:47:19.057Z,19.37
2022-09-14T21:49:48.451Z,19.39
2022-09-14T21:52:18.843Z,19.23
2022-09-14T21:54:50.186Z,19.30
2022-09-14T21:57:21.170Z,19.21
2022-09-14T21:59:52.613Z,19.09
2022-09-14T22:02:22.316Z,19.10
2022-09-14T22:04:52.634Z,19.17
2022-09-14T22:07:22.559Z,19.30
2022-09-14T22:09:53.854Z,19.21
2022-09-14T22:12:24.075Z,19.23
2022-09-14T22:14:54.084Z,19.22
2022-09-14T22:17:24.231Z,19.14
2022-09-14T22:19:55.197Z,19.09
2022-09-14T22:22:24.294Z,19.08
2022-09-14T22:24:53.828Z,18.92
2022-09-14T22:27:22.055Z,18.94
2022-09-14T22:29:50.970Z,18.86
2022-09-14T22:32:20.773Z,18.84
2022-09-14T22:34:50.633Z,18.80
2022-09-14T22:37:19.027Z,18.75
2022-09-14T22:39:48.114Z,18.76
2022-09-14T22:42:20.106Z,18.79
2022-09-14T22:44:48.864Z,18.82
2022-09-14T22:47:20.453Z,18.67
2022-09-14T22:49:51.277Z,18.66
2022-09-14T22:52:21.359Z,18.73
2022-09-14T22:54:51.677Z,18.64
2022-09-14T22:57:25.511Z,18.74
2022-09-14T22:59:54.439Z,18.75
2022-09-14T23:02:23.940Z,18.85
2022-09-14T23:04:53.849Z,18.91
2022-09-14T23:07:24.902Z,18.85
2022-09-14T23:09:54.909Z,18.98
2022-09-14T23:12:26.093Z,19.04
2022-09-14T23:14:55.908Z,19.10
2022-09-14T23:17:25.822Z,19.09
2022-09-14T23:19:56.226Z,19.08
2022-09-14T23:22:25.057Z,19.03
2022-09-14T23:24:55.038Z,18.88
2022-09-14T23:27:25.516Z,18.89
2022-09-14T23:29:54.773Z,18.91
2022-09-14T23:32:25.277Z,18.93
2022-09-14T23:34:54.100Z,18.93
2022-09-14T23:37:24.262Z,18.93
2022-09-14T23:39:52.638Z,18.93
2022-09-14T23:42:22.281Z,18.93
2022-09-14T23:44:54.183Z,18.94
2022-09-14T23:47:24.556Z,18.93
2022-09-14T23:49:55.286Z,18.93
2022-09-14T23:52:27.129Z,18.96
2022-09-14T23:54:57.294Z,19.04
2022-09-14T23:57:26.616Z,19.09
2022-09-14T23:59:58.428Z,19.13
